createdAt,value
2023-05-22T00:00:37.219Z,5.18
2023-05-22T00:03:08.545Z,5.18
2023-05-22T00:05:39.459Z,5.05
2023-05-22T00:08:11.597Z,6.00
2023-05-22T00:10:42.430Z,4.82
2023-05-22T00:13:09.532Z,5.90
2023-05-22T00:15:36.521Z,5.47
2023-05-22T00:18:04.099Z,4.68
2023-05-22T00:20:31.172Z,5.10
2023-05-22T00:23:01.254Z,5.10
2023-05-22T00:25:28.340Z,4.85
2023-05-22T00:27:55.396Z,4.40
2023-05-22T00:30:22.407Z,4.80
2023-05-22T00:32:49.446Z,5.00
2023-05-22T00:35:16.439Z,4.60
2023-05-22T00:37:46.112Z,4.65
2023-05-22T00:40:15.846Z,4.85
2023-05-22T00:42:47.041Z,4.90
2023-05-22T00:45:15.182Z,5.32
2023-05-22T00:47:42.616Z,5.80
2023-05-22T00:50:11.861Z,5.32
2023-05-22T00:52:42.683Z,5.75
2023-05-22T00:55:12.293Z,5.68
2023-05-22T00:57:43.044Z,5.30
2023-05-22T01:00:11.462Z,5.53
2023-05-22T01:02:39.616Z,5.30
2023-05-22T01:05:07.962Z,5.38
2023-05-22T01:07:37.829Z,5.88
2023-05-22T01:10:06.338Z,5.30
2023-05-22T01:12:41.944Z,5.57
2023-05-22T01:15:26.577Z,5.80
2023-05-22T01:18:11.351Z,5.57
2023-05-22T01:20:43.552Z,6.30
2023-05-22T01:23:29.132Z,5.50
2023-05-22T01:26:14.946Z,5.72
2023-05-22T01:28:50.897Z,5.80
2023-05-22T01:31:23.468Z,5.60
2023-05-22T01:33:54.462Z,6.18
2023-05-22T01:36:24.800Z,5.72
2023-05-22T01:38:54.438Z,5.32
2023-05-22T01:41:22.457Z,5.15
2023-05-22T01:43:49.648Z,5.63
2023-05-22T01:46:16.785Z,5.45
2023-05-22T01:48:43.806Z,6.10
2023-05-22T01:51:20.366Z,6.53
2023-05-22T01:54:24.668Z,5.22
2023-05-22T01:57:07.596Z,6.45
2023-05-22T01:59:43.565Z,6.07
2023-05-22T02:02:13.709Z,5.78
2023-05-22T02:04:46.412Z,5.55
2023-05-22T02:09:44.377Z,5.70
2023-05-22T02:12:13.722Z,6.30
2023-05-22T02:14:43.571Z,6.28
2023-05-22T02:17:10.700Z,5.78
2023-05-22T02:19:37.852Z,6.22
2023-05-22T02:22:05.955Z,7.03
2023-05-22T02:24:37.007Z,5.85
2023-05-22T02:27:04.214Z,5.80
2023-05-22T02:29:31.216Z,6.72
2023-05-22T02:31:58.714Z,6.95
2023-05-22T02:34:27.092Z,7.45
2023-05-22T02:36:54.158Z,6.13
2023-05-22T02:39:21.319Z,6.20
2023-05-22T02:41:48.475Z,7.32
2023-05-22T02:44:15.550Z,6.60
2023-05-22T02:46:43.674Z,6.22
2023-05-22T02:49:10.735Z,6.93
2023-05-22T02:51:37.815Z,6.95
2023-05-22T02:54:04.906Z,7.82
2023-05-22T02:56:32.889Z,7.57
2023-05-22T02:58:59.968Z,6.78
2023-05-22T03:01:27.065Z,7.32
2023-05-22T03:03:55.096Z,7.55
2023-05-22T03:06:23.320Z,8.20
2023-05-22T03:08:50.856Z,7.93
2023-05-22T03:11:17.921Z,8.48
2023-05-22T03:13:45.132Z,7.93
2023-05-22T03:16:12.233Z,7.93
2023-05-22T03:18:43.724Z,7.75
2023-05-22T03:21:11.024Z,9.70
2023-05-22T03:23:38.207Z,8.88
2023-05-22T03:26:05.277Z,9.95
2023-05-22T03:28:36.065Z,8.27
2023-05-22T03:31:03.352Z,9.70
2023-05-22T03:33:38.415Z,8.32
2023-05-22T03:36:05.956Z,8.70
2023-05-22T03:38:32.977Z,8.88
2023-05-22T03:41:01.001Z,10.55
2023-05-22T03:43:27.992Z,8.95
2023-05-22T03:45:55.324Z,8.82
2023-05-22T03:48:22.470Z,9.32
2023-05-22T03:50:51.381Z,9.55
2023-05-22T03:53:18.352Z,9.38
2023-05-22T03:55:45.563Z,7.97
2023-05-22T03:58:12.658Z,9.15
2023-05-22T04:00:39.912Z,9.18
2023-05-22T04:03:12.989Z,8.88
2023-05-22T04:05:40.559Z,8.82
2023-05-22T04:08:07.553Z,9.40
2023-05-22T04:10:35.955Z,9.20
2023-05-22T04:13:03.099Z,8.57
2023-05-22T04:15:30.234Z,9.68
2023-05-22T04:17:57.403Z,9.40
2023-05-22T04:20:24.434Z,8.73
2023-05-22T04:22:51.602Z,8.30
2023-05-22T04:25:18.652Z,9.30
2023-05-22T04:27:45.666Z,9.80
2023-05-22T04:30:14.383Z,9.38
2023-05-22T04:32:41.530Z,10.85
2023-05-22T04:35:10.150Z,10.27
2023-05-22T04:37:42.378Z,9.90
2023-05-22T04:40:10.175Z,11.15
2023-05-22T04:42:40.508Z,9.70
2023-05-22T04:45:08.550Z,9.98
2023-05-22T04:47:38.314Z,11.88
2023-05-22T04:50:07.774Z,10.02
2023-05-22T04:52:36.068Z,11.65
2023-05-22T04:55:05.986Z,11.38
2023-05-22T04:57:33.306Z,11.98
2023-05-22T05:00:01.246Z,9.68
2023-05-22T05:02:28.743Z,10.02
2023-05-22T05:04:56.194Z,9.68
2023-05-22T05:07:24.083Z,10.07
2023-05-22T05:09:51.494Z,9.75
2023-05-22T05:12:18.576Z,10.02
2023-05-22T05:14:45.661Z,10.38
2023-05-22T05:17:15.692Z,9.82
2023-05-22T05:19:42.793Z,10.07
2023-05-22T05:22:09.760Z,10.02
2023-05-22T05:24:36.907Z,9.95
2023-05-22T05:27:04.767Z,9.98
2023-05-22T05:29:32.175Z,10.63
2023-05-22T05:32:13.975Z,10.75
2023-05-22T05:34:48.424Z,10.27
2023-05-22T05:37:35.857Z,10.65
2023-05-22T05:40:07.234Z,11.70
2023-05-22T05:42:35.994Z,11.32
2023-05-22T05:45:05.037Z,12.15
2023-05-22T05:47:33.004Z,12.70
2023-05-22T05:50:00.867Z,12.93
2023-05-22T05:52:32.890Z,13.40
2023-05-22T05:55:03.621Z,14.18
2023-05-22T05:57:32.105Z,13.20
2023-05-22T05:59:59.589Z,11.23
2023-05-22T06:02:42.245Z,14.45
2023-05-22T06:05:29.612Z,16.30
2023-05-22T06:08:08.718Z,16.98
2023-05-22T06:10:36.139Z,18.10
2023-05-22T06:13:15.133Z,17.52
2023-05-22T06:15:42.469Z,20.45
2023-05-22T06:18:09.551Z,19.63
2023-05-22T06:20:37.802Z,22.02
2023-05-22T06:23:05.683Z,22.55
2023-05-22T06:25:33.098Z,25.83
2023-05-22T06:28:00.947Z,22.35
2023-05-22T06:30:39.456Z,23.58
2023-05-22T06:33:14.762Z,23.73
2023-05-22T06:35:43.217Z,24.90
2023-05-22T06:38:10.338Z,26.27
2023-05-22T06:40:38.044Z,24.92
2023-05-22T06:43:12.609Z,26.33
2023-05-22T06:45:51.270Z,29.95
2023-05-22T06:48:35.076Z,26.20
2023-05-22T06:51:11.779Z,28.50
2023-05-22T06:53:41.077Z,25.88
2023-05-22T06:56:13.539Z,27.17
2023-05-22T06:59:04.797Z,25.98
2023-05-22T07:02:10.554Z,25.08
2023-05-22T07:04:56.234Z,24.15
2023-05-22T07:07:32.906Z,23.48
2023-05-22T07:10:00.122Z,22.73
2023-05-22T07:12:28.291Z,22.63
2023-05-22T07:14:57.040Z,24.42
2023-05-22T07:17:26.159Z,22.33
2023-05-22T07:19:54.013Z,23.40
2023-05-22T07:22:21.558Z,23.10
2023-05-22T07:24:49.012Z,22.73
2023-05-22T07:27:17.947Z,21.40
2023-05-22T07:29:47.693Z,24.52
2023-05-22T07:32:14.860Z,23.20
2023-05-22T07:34:42.759Z,21.42
2023-05-22T07:37:14.286Z,22.25
2023-05-22T07:39:43.281Z,23.10
2023-05-22T07:42:10.773Z,22.88
2023-05-22T07:44:45.098Z,21.58
2023-05-22T07:47:12.333Z,22.05
2023-05-22T07:49:40.240Z,22.35
2023-05-22T07:52:07.443Z,21.85
2023-05-22T07:54:34.552Z,21.92
2023-05-22T07:57:03.526Z,21.63
2023-05-22T07:59:35.844Z,21.00
2023-05-22T08:02:03.101Z,20.38
2023-05-22T08:04:30.384Z,22.08
2023-05-22T08:06:57.482Z,20.90
2023-05-22T08:09:24.499Z,21.98
2023-05-22T08:11:51.559Z,19.67
2023-05-22T08:14:18.629Z,20.15
2023-05-22T08:16:45.708Z,20.25
2023-05-22T08:19:12.928Z,21.05
2023-05-22T08:21:40.405Z,18.35
2023-05-22T08:24:08.225Z,18.73
2023-05-22T08:26:35.262Z,18.08
2023-05-22T08:29:02.697Z,18.33
2023-05-22T08:31:29.816Z,18.60
2023-05-22T08:34:02.727Z,17.88
2023-05-22T08:36:34.207Z,18.57
2023-05-22T08:39:01.924Z,17.42
2023-05-22T08:41:30.104Z,17.88
2023-05-22T08:43:57.612Z,17.73
2023-05-22T08:46:29.457Z,18.08
2023-05-22T08:48:57.894Z,16.17
2023-05-22T08:51:31.509Z,17.20
2023-05-22T08:56:29.127Z,18.88
2023-05-22T08:58:58.499Z,16.58
2023-05-22T09:01:26.118Z,14.52
2023-05-22T09:03:53.998Z,14.93
2023-05-22T09:06:21.198Z,15.75
2023-05-22T09:08:48.915Z,15.02
2023-05-22T09:11:17.906Z,17.45
2023-05-22T09:13:44.984Z,17.23
2023-05-22T09:16:13.046Z,19.05
2023-05-22T09:18:42.333Z,18.77
2023-05-22T09:21:25.986Z,20.42
2023-05-22T09:24:01.365Z,20.55
2023-05-22T09:26:29.550Z,20.83
2023-05-22T09:28:59.002Z,20.83
2023-05-22T09:31:26.265Z,20.10
2023-05-22T09:33:54.294Z,21.77
2023-05-22T09:36:22.145Z,23.70
2023-05-22T09:38:49.388Z,27.45
2023-05-22T09:41:22.626Z,24.52
2023-05-22T09:43:52.517Z,26.27
2023-05-22T09:46:19.649Z,26.23
2023-05-22T09:48:52.326Z,24.95
2023-05-22T09:51:23.943Z,24.02
2023-05-22T09:53:52.421Z,23.15
2023-05-22T09:56:31.124Z,23.70
2023-05-22T09:59:09.308Z,21.40
2023-05-22T10:01:38.748Z,22.30
2023-05-22T10:04:10.201Z,22.50
2023-05-22T10:06:38.428Z,22.40
2023-05-22T10:09:09.557Z,21.27
2023-05-22T10:11:37.825Z,22.15
2023-05-22T10:14:05.251Z,21.33
2023-05-22T10:16:34.313Z,20.98
2023-05-22T10:19:01.605Z,19.08
2023-05-22T10:21:30.200Z,18.42
2023-05-22T10:23:59.512Z,19.48
2023-05-22T10:26:27.341Z,17.85
2023-05-22T10:29:11.502Z,17.30
2023-05-22T10:31:50.722Z,15.77
2023-05-22T10:34:40.709Z,15.35
2023-05-22T10:37:31.924Z,14.20
2023-05-22T10:40:08.992Z,15.40
2023-05-22T10:42:38.720Z,15.23
2023-05-22T10:45:09.268Z,16.27
2023-05-22T10:47:37.089Z,16.05
2023-05-22T10:50:11.380Z,16.50
2023-05-22T10:52:39.972Z,16.08
2023-05-22T10:55:10.930Z,15.73
2023-05-22T10:57:39.751Z,15.18
2023-05-22T11:00:15.739Z,14.85
2023-05-22T11:02:46.366Z,13.93
2023-05-22T11:05:21.700Z,14.93
2023-05-22T11:07:49.121Z,13.75
2023-05-22T11:10:44.643Z,15.02
2023-05-22T11:13:12.172Z,15.45
2023-05-22T11:15:45.519Z,14.82
2023-05-22T11:18:14.581Z,14.05
2023-05-22T11:20:42.261Z,13.65
2023-05-22T11:23:11.646Z,12.20
2023-05-22T11:25:41.363Z,12.23
2023-05-22T11:28:10.682Z,11.30
2023-05-22T11:30:38.656Z,11.68
2023-05-22T11:33:08.776Z,12.80
2023-05-22T11:35:37.698Z,12.45
2023-05-22T11:38:07.312Z,12.43
2023-05-22T11:40:34.557Z,11.90
2023-05-22T11:43:01.842Z,11.85
2023-05-22T11:45:28.885Z,11.88
2023-05-22T11:47:56.375Z,11.32
2023-05-22T11:50:43.646Z,10.95
2023-05-22T11:53:10.757Z,10.63
2023-05-22T11:55:37.778Z,10.90
2023-05-22T11:58:04.829Z,9.93
2023-05-22T12:00:32.151Z,10.32
2023-05-22T12:02:59.595Z,10.15
2023-05-22T12:05:26.836Z,10.20
2023-05-22T12:07:54.075Z,10.50
2023-05-22T12:10:21.139Z,10.00
2023-05-22T12:12:48.472Z,11.13
2023-05-22T12:15:20.326Z,11.63
2023-05-22T12:17:47.427Z,9.32
2023-05-22T12:20:14.695Z,10.25
2023-05-22T12:22:43.457Z,9.18
2023-05-22T12:25:17.634Z,9.07
2023-05-22T12:27:46.153Z,8.27
2023-05-22T12:30:14.092Z,8.30
2023-05-22T12:32:46.804Z,8.75
2023-05-22T12:35:18.340Z,9.60
2023-05-22T12:37:50.305Z,10.40
2023-05-22T12:40:17.587Z,10.18
2023-05-22T12:42:45.143Z,11.20
2023-05-22T12:45:13.308Z,11.68
2023-05-22T12:47:40.415Z,11.00
2023-05-22T12:50:08.382Z,11.25
2023-05-22T12:52:36.093Z,11.30
2023-05-22T12:55:03.324Z,11.05
2023-05-22T12:57:30.279Z,12.13
2023-05-22T12:59:57.368Z,11.48
2023-05-22T13:02:24.414Z,11.55
2023-05-22T13:04:51.576Z,11.23
2023-05-22T13:07:18.594Z,11.32
2023-05-22T13:09:45.618Z,12.70
2023-05-22T13:12:12.826Z,13.20
2023-05-22T13:14:40.691Z,12.20
2023-05-22T13:17:08.244Z,12.48
2023-05-22T13:19:35.345Z,13.95
2023-05-22T13:22:02.511Z,14.20
2023-05-22T13:24:29.884Z,11.98
2023-05-22T13:26:56.926Z,12.80
2023-05-22T13:29:24.046Z,12.77
2023-05-22T13:31:51.441Z,12.07
2023-05-22T13:34:18.783Z,12.30
2023-05-22T13:36:46.639Z,13.00
2023-05-22T13:39:13.699Z,12.93
2023-05-22T13:41:40.771Z,12.27
2023-05-22T13:44:07.924Z,12.35
2023-05-22T13:46:34.984Z,12.48
2023-05-22T13:49:02.112Z,11.98
2023-05-22T13:51:29.449Z,12.25
2023-05-22T13:53:56.498Z,11.73
2023-05-22T13:56:23.909Z,11.80
2023-05-22T13:58:50.979Z,11.90
2023-05-22T14:01:18.105Z,11.32
2023-05-22T14:03:45.269Z,11.00
2023-05-22T14:06:12.291Z,10.60
2023-05-22T14:08:39.375Z,10.60
2023-05-22T14:11:06.400Z,9.82
2023-05-22T14:13:33.484Z,9.82
2023-05-22T14:16:00.538Z,10.38
2023-05-22T14:18:27.641Z,10.43
2023-05-22T14:20:54.878Z,9.80
2023-05-22T14:23:22.200Z,8.90
2023-05-22T14:25:49.240Z,8.57
2023-05-22T14:28:16.609Z,8.77
2023-05-22T14:30:43.666Z,8.45
2023-05-22T14:33:11.486Z,7.97
2023-05-22T14:35:38.811Z,9.15
2023-05-22T14:38:06.396Z,8.68
2023-05-22T14:40:33.640Z,8.70
2023-05-22T14:43:01.138Z,8.45
2023-05-22T14:45:28.182Z,8.77
2023-05-22T14:47:55.309Z,8.95
2023-05-22T14:50:22.544Z,8.98
2023-05-22T14:52:50.051Z,9.38
2023-05-22T14:55:17.883Z,9.02
2023-05-22T14:57:44.987Z,8.25
2023-05-22T15:00:12.738Z,8.70
2023-05-22T15:02:40.725Z,10.73
2023-05-22T15:05:08.635Z,10.55
2023-05-22T15:07:43.972Z,9.93
2023-05-22T15:10:12.583Z,10.13
2023-05-22T15:12:39.603Z,11.20
2023-05-22T15:15:07.226Z,12.00
2023-05-22T15:17:34.325Z,11.48
2023-05-22T15:20:01.430Z,11.15
2023-05-22T15:22:28.465Z,11.82
2023-05-22T15:25:15.472Z,10.50
2023-05-22T15:27:42.889Z,10.40
2023-05-22T15:30:10.397Z,9.88
2023-05-22T15:32:38.044Z,10.27
2023-05-22T15:35:06.461Z,10.25
2023-05-22T15:37:34.198Z,10.43
2023-05-22T15:40:02.296Z,10.65
2023-05-22T15:42:30.005Z,11.32
2023-05-22T15:44:59.274Z,11.60
2023-05-22T15:47:26.841Z,12.23
2023-05-22T15:49:53.918Z,13.38
2023-05-22T15:52:22.583Z,12.65
2023-05-22T15:54:49.754Z,12.70
2023-05-22T15:57:17.081Z,12.35
2023-05-22T15:59:47.030Z,12.45
2023-05-22T16:02:14.474Z,12.40
2023-05-22T16:04:41.612Z,12.02
2023-05-22T16:07:08.709Z,12.73
2023-05-22T16:09:36.279Z,12.73
2023-05-22T16:12:04.165Z,11.80
2023-05-22T16:14:31.377Z,12.15
2023-05-22T16:16:58.467Z,11.27
2023-05-22T16:19:25.700Z,11.23
2023-05-22T16:21:53.756Z,11.02
2023-05-22T16:24:20.773Z,10.13
2023-05-22T16:26:47.823Z,10.65
2023-05-22T16:29:14.881Z,9.90
2023-05-22T16:31:45.119Z,9.65
2023-05-22T16:34:13.182Z,10.77
2023-05-22T16:36:40.214Z,10.52
2023-05-22T16:39:07.274Z,9.57
2023-05-22T16:41:34.501Z,9.20
2023-05-22T16:44:01.522Z,8.55
2023-05-22T16:46:28.534Z,8.30
2023-05-22T16:48:55.627Z,9.02
2023-05-22T16:51:22.674Z,8.10
2023-05-22T16:53:50.391Z,9.38
2023-05-22T16:56:20.394Z,9.40
2023-05-22T16:58:47.790Z,9.05
2023-05-22T17:01:15.064Z,8.85
2023-05-22T17:03:42.198Z,10.85
2023-05-22T17:06:09.259Z,10.55
2023-05-22T17:08:36.334Z,10.40
2023-05-22T17:11:03.392Z,11.90
2023-05-22T17:13:30.420Z,11.52
2023-05-22T17:15:57.577Z,10.57
2023-05-22T17:18:24.620Z,11.25
2023-05-22T17:20:54.001Z,10.90
2023-05-22T17:23:21.528Z,11.23
2023-05-22T17:25:48.757Z,11.80
2023-05-22T17:28:15.816Z,11.40
2023-05-22T17:30:46.690Z,10.95
2023-05-22T17:33:14.190Z,10.40
2023-05-22T17:35:41.858Z,11.57
2023-05-22T17:38:08.983Z,11.07
2023-05-22T17:40:44.737Z,11.15
2023-05-22T17:43:12.482Z,11.50
2023-05-22T17:45:39.785Z,11.60
2023-05-22T17:48:07.829Z,10.82
2023-05-22T17:50:35.034Z,12.48
2023-05-22T17:53:02.159Z,11.77
2023-05-22T17:55:29.179Z,11.63
2023-05-22T17:57:56.463Z,11.65
2023-05-22T18:00:23.591Z,12.25
2023-05-22T18:02:50.868Z,13.00
2023-05-22T18:05:18.063Z,13.93
2023-05-22T18:07:45.093Z,13.60
2023-05-22T18:10:12.074Z,12.80
2023-05-22T18:12:39.397Z,13.07
2023-05-22T18:15:09.610Z,14.90
2023-05-22T18:17:36.788Z,14.07
2023-05-22T18:20:07.419Z,15.15
2023-05-22T18:22:38.409Z,14.50
2023-05-22T18:25:09.395Z,15.63
2023-05-22T18:27:36.587Z,15.20
2023-05-22T18:30:05.276Z,14.43
2023-05-22T18:32:32.580Z,16.05
2023-05-22T18:35:02.403Z,15.90
2023-05-22T18:37:29.784Z,17.08
2023-05-22T18:39:56.861Z,16.75
2023-05-22T18:42:23.908Z,14.85
2023-05-22T18:44:51.090Z,15.52
2023-05-22T18:47:18.568Z,15.77
2023-05-22T18:49:45.634Z,13.95
2023-05-22T18:52:12.902Z,14.13
2023-05-22T18:54:40.022Z,12.77
2023-05-22T18:57:07.114Z,12.30
2023-05-22T18:59:34.073Z,12.05
2023-05-22T19:02:01.200Z,12.10
2023-05-22T19:04:29.579Z,12.27
2023-05-22T19:06:56.777Z,12.02
2023-05-22T19:09:24.788Z,10.77
2023-05-22T19:11:51.864Z,11.88
2023-05-22T19:14:18.861Z,11.02
2023-05-22T19:16:45.951Z,12.98
2023-05-22T19:19:14.746Z,11.30
2023-05-22T19:21:42.018Z,11.00
2023-05-22T19:24:09.045Z,12.85
2023-05-22T19:26:36.259Z,11.73
2023-05-22T19:29:03.339Z,11.98
2023-05-22T19:31:30.614Z,11.80
2023-05-22T19:33:57.762Z,12.48
2023-05-22T19:36:24.899Z,12.02
2023-05-22T19:38:53.410Z,11.27
2023-05-22T19:41:21.647Z,11.68
2023-05-22T19:43:48.690Z,10.40
2023-05-22T19:46:15.776Z,10.85
2023-05-22T19:48:42.773Z,8.95
2023-05-22T19:51:09.780Z,9.77
2023-05-22T19:53:36.853Z,9.93
2023-05-22T19:56:04.029Z,9.55
2023-05-22T19:58:31.078Z,9.52
2023-05-22T20:00:58.187Z,9.50
2023-05-22T20:03:26.326Z,9.55
2023-05-22T20:05:53.880Z,8.88
2023-05-22T20:08:25.581Z,8.38
2023-05-22T20:10:53.030Z,8.82
2023-05-22T20:13:20.084Z,8.88
2023-05-22T20:15:47.925Z,9.65
2023-05-22T20:18:15.228Z,8.80
2023-05-22T20:20:42.407Z,9.25
2023-05-22T20:23:09.493Z,9.63
2023-05-22T20:25:37.727Z,9.93
2023-05-22T20:28:05.114Z,9.95
2023-05-22T20:30:32.863Z,10.48
2023-05-22T20:32:59.871Z,9.38
2023-05-22T20:35:27.007Z,9.13
2023-05-22T20:37:54.054Z,8.40
2023-05-22T20:40:21.826Z,9.32
2023-05-22T20:42:48.868Z,9.38
2023-05-22T20:45:16.500Z,8.90
2023-05-22T20:47:43.722Z,9.10
2023-05-22T20:50:11.369Z,9.32
2023-05-22T20:52:38.534Z,9.68
2023-05-22T20:55:06.936Z,9.00
2023-05-22T20:57:34.661Z,9.73
2023-05-22T21:00:01.822Z,10.48
2023-05-22T21:02:28.877Z,11.25
2023-05-22T21:04:55.996Z,10.10
2023-05-22T21:07:23.095Z,10.43
2023-05-22T21:09:50.143Z,10.52
2023-05-22T21:12:17.319Z,10.07
2023-05-22T21:14:44.431Z,11.02
2023-05-22T21:17:11.490Z,11.10
2023-05-22T21:19:38.671Z,11.18
2023-05-22T21:22:05.885Z,10.68
2023-05-22T21:24:33.185Z,12.35
2023-05-22T21:27:00.699Z,11.93
2023-05-22T21:29:27.799Z,10.90
2023-05-22T21:31:54.895Z,9.95
2023-05-22T21:34:22.047Z,11.15
2023-05-22T21:36:50.541Z,10.77
2023-05-22T21:39:17.498Z,10.13
2023-05-22T21:41:44.580Z,10.30
2023-05-22T21:44:11.665Z,10.55
2023-05-22T21:46:38.773Z,10.93
2023-05-22T21:49:06.271Z,10.80
2023-05-22T21:51:33.552Z,10.40
2023-05-22T21:54:00.870Z,11.32
2023-05-22T21:56:28.028Z,11.57
2023-05-22T21:58:55.082Z,11.18
2023-05-22T22:01:22.295Z,11.43
2023-05-22T22:03:49.354Z,11.10
2023-05-22T22:06:16.488Z,10.70
2023-05-22T22:08:43.475Z,11.98
2023-05-22T22:11:10.565Z,12.70
2023-05-22T22:13:37.626Z,11.60
2023-05-22T22:16:05.013Z,13.07
2023-05-22T22:18:33.622Z,11.88
2023-05-22T22:21:02.511Z,11.73
2023-05-22T22:23:29.818Z,11.15
2023-05-22T22:25:56.853Z,11.07
2023-05-22T22:28:23.904Z,10.52
2023-05-22T22:30:51.007Z,11.18
2023-05-22T22:33:18.108Z,11.75
2023-05-22T22:35:45.951Z,12.27
2023-05-22T22:38:12.923Z,11.35
2023-05-22T22:40:40.346Z,11.75
2023-05-22T22:43:07.459Z,10.35
2023-05-22T22:45:34.612Z,10.32
2023-05-22T22:48:01.687Z,10.50
2023-05-22T22:50:28.826Z,10.95
2023-05-22T22:52:55.906Z,11.48
2023-05-22T22:55:23.108Z,9.95
2023-05-22T22:57:50.417Z,9.93
2023-05-22T23:00:18.949Z,9.02
2023-05-22T23:02:46.191Z,9.60
2023-05-22T23:05:14.963Z,10.50
2023-05-22T23:07:42.104Z,9.15
2023-05-22T23:10:09.484Z,9.73
2023-05-22T23:12:36.503Z,10.70
2023-05-22T23:15:04.169Z,10.18
2023-05-22T23:17:31.313Z,9.88
2023-05-22T23:19:58.578Z,9.35
2023-05-22T23:22:25.718Z,10.23
2023-05-22T23:24:52.785Z,9.98
2023-05-22T23:27:19.792Z,10.35
2023-05-22T23:29:46.834Z,9.85
2023-05-22T23:32:14.901Z,11.00
2023-05-22T23:34:42.473Z,10.30
2023-05-22T23:37:10.140Z,5.35
2023-05-22T23:39:37.205Z,9.95
2023-05-22T23:42:04.400Z,11.23
2023-05-22T23:44:31.862Z,11.98
2023-05-22T23:46:59.224Z,10.98
2023-05-22T23:49:26.618Z,11.73
2023-05-22T23:51:53.823Z,11.35
2023-05-22T23:54:20.991Z,11.68
2023-05-22T23:56:48.279Z,12.50
2023-05-22T23:59:15.902Z,11.10
